Time;durP1;ratioP1;P1;durP2;ratioP2;P2;SDS_P1;SDS_P2;PMS_P1;PMS_P2;Temp;Humidity;BMP_temperature;BMP_pressure;BME280_temperature;BME280_humidity;BME280_pressure;Samples;Min_cycle;Max_cycle;Signal;HPM_P1;HPM_P2
2023/04/09 00:01:58;;;;;;;24.90;18.08;;;11.40;99.90;;;;;;5038620;28;20035;-44
2023/04/09 00:04:23;;;;;;;23.58;17.95;;;11.40;99.90;;;;;;5040202;28;20076;-44
2023/04/09 00:06:49;;;;;;;24.33;18.73;;;11.40;99.90;;;;;;5038755;28;20120;-44
2023/04/09 00:09:15;;;;;;;24.10;18.58;;;11.40;99.90;;;;;;5041264;28;20789;-44
2023/04/09 00:11:40;;;;;;;23.58;17.48;;;11.40;99.90;;;;;;5043433;28;20036;-44
2023/04/09 00:14:06;;;;;;;23.92;17.40;;;11.30;99.90;;;;;;5032130;28;20055;-43
2023/04/09 00:16:32;;;;;;;22.85;17.33;;;11.30;99.90;;;;;;5043708;28;20151;-43
2023/04/09 00:18:57;;;;;;;26.70;18.75;;;11.30;99.90;;;;;;5043033;28;20025;-44
2023/04/09 00:21:23;;;;;;;25.25;18.63;;;11.30;99.90;;;;;;5043687;28;20031;-45
2023/04/09 00:23:48;;;;;;;24.25;17.15;;;11.30;99.90;;;;;;5043525;28;20469;-44
2023/04/09 00:26:14;;;;;;;24.25;17.02;;;11.30;99.90;;;;;;5044139;28;20080;-44
2023/04/09 00:28:40;;;;;;;25.17;18.42;;;11.30;99.90;;;;;;5043349;28;20482;-44
2023/04/09 00:31:05;;;;;;;23.50;17.30;;;11.30;99.90;;;;;;5043689;28;20507;-44
2023/04/09 00:33:31;;;;;;;25.08;17.90;;;11.30;99.90;;;;;;5043352;28;20579;-44
2023/04/09 00:35:56;;;;;;;23.73;17.80;;;11.20;99.90;;;;;;5042259;28;20029;-43
2023/04/09 00:38:22;;;;;;;26.40;19.40;;;11.20;99.90;;;;;;5043244;28;20035;-44
2023/04/09 00:40:49;;;;;;;24.58;18.38;;;11.30;99.90;;;;;;5043590;28;20140;-43
2023/04/09 00:43:16;;;;;;;23.50;18.10;;;11.20;99.90;;;;;;5043101;28;20115;-44
2023/04/09 00:45:42;;;;;;;25.63;17.63;;;11.20;99.90;;;;;;5043944;28;20017;-44
2023/04/09 00:48:08;;;;;;;23.38;17.48;;;11.20;99.90;;;;;;5042856;28;20055;-45
2023/04/09 00:50:33;;;;;;;27.23;18.60;;;11.20;99.90;;;;;;5042411;28;20037;-44
2023/04/09 00:52:59;;;;;;;25.02;17.83;;;11.20;99.90;;;;;;5043602;28;20102;-44
2023/04/09 00:55:25;;;;;;;24.08;17.25;;;11.30;99.90;;;;;;5043042;28;20137;-44
2023/04/09 00:57:51;;;;;;;23.98;17.10;;;11.20;99.90;;;;;;5042298;28;20488;-44
2023/04/09 01:00:17;;;;;;;23.63;17.33;;;11.20;99.90;;;;;;5043846;28;20028;-44
2023/04/09 01:02:43;;;;;;;25.48;17.55;;;11.20;99.90;;;;;;5043009;28;20036;-44
2023/04/09 01:05:10;;;;;;;27.10;18.30;;;11.20;99.90;;;;;;5042172;28;20100;-44
2023/04/09 01:08:06;;;;;;;25.13;17.50;;;11.20;99.90;;;;;;5042904;28;20039;-44
2023/04/09 01:10:59;;;;;;;22.65;16.60;;;11.20;99.90;;;;;;5042258;28;20025;-44
2023/04/09 01:13:38;;;;;;;24.52;17.40;;;11.30;99.90;;;;;;5043081;28;20025;-44
2023/04/09 01:16:05;;;;;;;25.42;17.58;;;11.30;99.90;;;;;;5042605;28;20029;-44
2023/04/09 01:18:48;;;;;;;26.42;18.30;;;11.30;99.90;;;;;;5042280;28;20037;-42
2023/04/09 01:21:22;;;;;;;22.95;16.13;;;11.20;99.90;;;;;;5042454;28;20131;-44
2023/04/09 01:23:57;;;;;;;27.60;18.80;;;11.20;99.90;;;;;;5042007;28;20033;-44
2023/04/09 01:26:57;;;;;;;27.63;18.05;;;11.20;99.90;;;;;;5041549;28;20031;-43
2023/04/09 01:29:24;;;;;;;29.73;20.25;;;11.20;99.90;;;;;;5041657;28;20025;-43
2023/04/09 01:31:52;;;;;;;27.67;18.75;;;11.20;99.90;;;;;;5041768;28;20087;-43
2023/04/09 01:34:19;;;;;;;27.85;20.02;;;11.20;99.90;;;;;;5042526;28;20025;-43
2023/04/09 01:36:50;;;;;;;26.55;19.00;;;11.10;99.90;;;;;;5042183;28;20041;-43
2023/04/09 01:39:16;;;;;;;26.35;19.40;;;11.10;99.90;;;;;;5041649;28;20029;-43
2023/04/09 01:41:42;;;;;;;27.52;19.02;;;11.10;99.90;;;;;;5042011;28;20040;-44
2023/04/09 01:44:09;;;;;;;28.88;19.50;;;11.10;99.90;;;;;;5042076;28;20497;-42
2023/04/09 01:46:36;;;;;;;26.77;18.35;;;11.10;99.90;;;;;;5041107;28;20393;-43
2023/04/09 01:49:03;;;;;;;25.60;18.38;;;11.10;99.90;;;;;;5042564;28;20056;-43
2023/04/09 01:51:31;;;;;;;24.13;18.40;;;11.00;99.90;;;;;;5042146;28;20075;-44
2023/04/09 01:53:57;;;;;;;23.92;17.65;;;11.00;99.90;;;;;;5041561;28;20037;-44
2023/04/09 01:56:22;;;;;;;24.67;16.92;;;11.00;99.90;;;;;;5042277;28;20115;-44
2023/04/09 01:58:48;;;;;;;25.75;18.35;;;11.10;99.90;;;;;;5041863;28;20066;-43
2023/04/09 02:01:32;;;;;;;26.67;19.33;;;11.10;99.90;;;;;;5041319;28;20163;-43
2023/04/09 02:04:02;;;;;;;29.33;18.98;;;11.10;99.90;;;;;;5041929;28;20515;-43
2023/04/09 02:06:40;;;;;;;22.33;16.88;;;11.00;99.90;;;;;;5041065;28;20028;-43
2023/04/09 02:09:08;;;;;;;22.48;16.73;;;11.10;99.90;;;;;;5041591;28;20188;-44
2023/04/09 02:11:38;;;;;;;22.58;17.25;;;11.00;99.90;;;;;;5041464;28;20106;-43
2023/04/09 02:14:07;;;;;;;22.65;16.80;;;11.00;99.90;;;;;;5039888;28;20033;-43
2023/04/09 02:16:33;;;;;;;23.27;16.75;;;11.10;99.90;;;;;;5041316;28;20082;-43
2023/04/09 02:19:00;;;;;;;20.05;15.30;;;11.10;99.90;;;;;;5041535;28;20036;-44
2023/04/09 02:21:27;;;;;;;20.38;15.52;;;11.10;99.90;;;;;;5041299;28;20044;-43
2023/04/09 02:23:53;;;;;;;23.45;16.23;;;11.10;99.90;;;;;;5041642;28;20029;-43
2023/04/09 02:26:19;;;;;;;19.55;14.77;;;11.10;99.90;;;;;;5041475;28;20854;-43
2023/04/09 02:28:47;;;;;;;19.10;14.27;;;11.10;99.90;;;;;;5040962;28;20025;-43
2023/04/09 02:31:13;;;;;;;18.42;14.25;;;11.10;99.90;;;;;;5041216;28;20025;-44
2023/04/09 02:33:38;;;;;;;21.15;15.73;;;11.10;99.90;;;;;;5040730;28;20028;-43
2023/04/09 02:36:05;;;;;;;21.08;15.57;;;11.10;99.90;;;;;;5040302;28;20029;-44
2023/04/09 02:38:30;;;;;;;18.33;14.30;;;11.10;99.90;;;;;;5038053;28;20032;-44
2023/04/09 02:40:56;;;;;;;21.77;16.30;;;11.00;99.90;;;;;;5041549;28;20021;-44
2023/04/09 02:43:22;;;;;;;19.95;15.70;;;11.00;99.90;;;;;;5040876;28;20025;-44
2023/04/09 02:45:48;;;;;;;20.17;15.65;;;11.00;99.90;;;;;;5041411;28;20024;-43
2023/04/09 02:48:16;;;;;;;19.83;15.15;;;11.10;99.90;;;;;;5041211;28;20506;-44
2023/04/09 02:50:41;;;;;;;19.02;14.98;;;11.00;99.90;;;;;;5020667;28;20057;-44
2023/04/09 02:53:07;;;;;;;19.00;14.73;;;11.00;99.90;;;;;;5035066;28;20511;-43
2023/04/09 02:55:32;;;;;;;23.10;17.00;;;11.00;99.90;;;;;;5041063;28;20029;-44
2023/04/09 02:57:58;;;;;;;23.95;16.88;;;11.00;99.90;;;;;;5039681;28;20066;-44
2023/04/09 03:00:23;;;;;;;22.38;16.13;;;11.00;99.90;;;;;;5040759;28;20025;-44
2023/04/09 03:02:49;;;;;;;23.15;17.08;;;11.00;99.90;;;;;;5040451;28;20040;-43
2023/04/09 03:05:14;;;;;;;20.88;16.40;;;11.00;99.90;;;;;;5041120;28;20036;-43
2023/04/09 03:07:40;;;;;;;21.45;15.82;;;11.00;99.90;;;;;;5040478;28;20025;-43
2023/04/09 03:10:06;;;;;;;21.73;16.52;;;11.00;99.90;;;;;;5039841;28;20423;-43
2023/04/09 03:12:31;;;;;;;22.85;17.08;;;11.10;99.90;;;;;;5040617;28;20132;-43
2023/04/09 03:14:57;;;;;;;22.85;16.80;;;11.10;99.90;;;;;;5040561;28;20716;-44
2023/04/09 03:17:25;;;;;;;25.52;17.75;;;11.00;99.90;;;;;;5039891;28;20041;-44
2023/04/09 03:19:52;;;;;;;22.42;16.65;;;11.00;99.90;;;;;;5040640;28;20120;-45
2023/04/09 03:22:17;;;;;;;23.08;16.48;;;11.00;99.90;;;;;;5040158;28;20035;-44
2023/04/09 03:24:43;;;;;;;20.75;15.88;;;11.00;99.90;;;;;;5039550;28;20025;-44
2023/04/09 03:27:08;;;;;;;22.00;15.77;;;11.00;99.90;;;;;;5041470;28;20040;-44
2023/04/09 03:29:37;;;;;;;22.55;16.83;;;11.00;99.90;;;;;;5040004;28;20112;-44
2023/04/09 03:32:02;;;;;;;24.48;17.15;;;10.90;99.90;;;;;;5019802;28;20035;-44
2023/04/09 03:34:34;;;;;;;22.80;16.63;;;11.00;99.90;;;;;;5034681;28;20789;-44
2023/04/09 03:37:00;;;;;;;20.38;15.73;;;10.90;99.90;;;;;;5040251;28;20041;-44
2023/04/09 03:39:29;;;;;;;22.80;15.60;;;10.90;99.90;;;;;;5040068;28;20028;-44
2023/04/09 03:41:56;;;;;;;24.42;17.42;;;11.00;99.90;;;;;;5040215;28;20158;-44
2023/04/09 03:44:22;;;;;;;26.42;18.73;;;10.90;99.90;;;;;;5040571;28;20024;-42
2023/04/09 03:46:48;;;;;;;27.92;20.98;;;10.90;99.90;;;;;;5039170;28;20045;-43
2023/04/09 03:49:13;;;;;;;25.77;18.67;;;10.90;99.90;;;;;;5039672;28;20055;-43
2023/04/09 03:51:39;;;;;;;28.48;20.52;;;10.90;99.90;;;;;;5039573;28;20025;-44
2023/04/09 03:54:04;;;;;;;27.35;20.42;;;10.90;99.90;;;;;;5039096;28;20557;-43
2023/04/09 03:56:30;;;;;;;27.90;20.40;;;10.80;99.90;;;;;;5039656;28;20045;-43
2023/04/09 03:58:55;;;;;;;26.98;18.88;;;10.90;99.90;;;;;;5038726;28;20021;-44
2023/04/09 04:01:21;;;;;;;24.25;18.42;;;10.90;99.90;;;;;;5039812;28;20031;-42
2023/04/09 04:03:46;;;;;;;22.65;17.63;;;10.80;99.90;;;;;;5039992;28;20138;-43
2023/04/09 04:06:12;;;;;;;22.33;16.58;;;10.80;99.90;;;;;;5039669;28;20765;-43
2023/04/09 04:08:37;;;;;;;21.77;16.98;;;10.80;99.90;;;;;;5040057;28;20132;-44
2023/04/09 04:11:04;;;;;;;22.38;16.60;;;10.80;99.90;;;;;;5039130;28;20064;-44
2023/04/09 04:13:30;;;;;;;24.30;18.13;;;10.80;99.90;;;;;;5038997;28;20818;-44
2023/04/09 04:15:55;;;;;;;22.17;16.15;;;10.70;99.90;;;;;;5038911;28;20025;-43
2023/04/09 04:18:21;;;;;;;24.60;16.50;;;10.70;99.90;;;;;;5039835;28;20049;-43
2023/04/09 04:20:46;;;;;;;23.75;16.65;;;10.70;99.90;;;;;;5039121;28;20025;-45
2023/04/09 04:23:12;;;;;;;21.92;16.08;;;10.70;99.90;;;;;;5039713;28;20352;-44
2023/04/09 04:25:41;;;;;;;22.02;16.45;;;10.70;99.90;;;;;;5039442;28;20029;-44
2023/04/09 04:28:09;;;;;;;22.10;16.85;;;10.60;99.90;;;;;;5038767;28;20151;-43
2023/04/09 04:30:35;;;;;;;23.88;16.83;;;10.60;99.90;;;;;;5039362;28;20464;-44
2023/04/09 04:33:00;;;;;;;22.27;16.90;;;10.60;99.90;;;;;;5039677;28;20052;-45
2023/04/09 04:35:26;;;;;;;23.90;17.00;;;10.60;99.90;;;;;;5039351;28;20020;-43
2023/04/09 04:37:52;;;;;;;23.05;16.98;;;10.50;99.90;;;;;;5039572;28;20048;-44
2023/04/09 04:40:17;;;;;;;25.77;18.33;;;10.50;99.90;;;;;;5040292;28;20750;-43
2023/04/09 04:42:43;;;;;;;21.75;16.33;;;10.50;99.90;;;;;;5039345;28;20547;-45
2023/04/09 04:45:09;;;;;;;23.15;16.95;;;10.50;99.90;;;;;;5040159;28;20087;-44
2023/04/09 04:47:34;;;;;;;24.65;18.25;;;10.40;99.90;;;;;;5039338;28;20083;-44
2023/04/09 04:50:00;;;;;;;21.67;16.40;;;10.40;99.90;;;;;;5038898;28;20032;-44
2023/04/09 04:52:25;;;;;;;23.90;16.58;;;10.30;99.90;;;;;;5039414;28;20552;-43
2023/04/09 04:54:51;;;;;;;22.10;15.68;;;10.40;99.90;;;;;;5039916;28;20048;-44
2023/04/09 04:57:17;;;;;;;22.10;15.68;;;10.30;99.90;;;;;;5042544;28;20051;-43
2023/04/09 04:59:42;;;;;;;21.80;16.17;;;10.30;99.90;;;;;;5042512;28;20136;-43
2023/04/09 05:02:08;;;;;;;21.13;15.50;;;10.30;99.90;;;;;;5042335;28;20032;-44
2023/04/09 05:04:34;;;;;;;22.45;16.65;;;10.30;99.90;;;;;;5042319;28;20033;-43
2023/04/09 05:07:00;;;;;;;22.00;16.27;;;10.30;99.90;;;;;;5042537;28;20107;-44
2023/04/09 05:09:25;;;;;;;22.27;15.88;;;10.20;99.90;;;;;;5042366;28;20074;-44
2023/04/09 05:11:51;;;;;;;22.10;16.02;;;10.20;99.90;;;;;;5042405;28;20056;-44
2023/04/09 05:14:16;;;;;;;23.40;16.88;;;10.10;99.90;;;;;;5043555;28;20306;-45
2023/04/09 05:16:42;;;;;;;24.70;16.60;;;10.10;99.90;;;;;;5042259;28;20021;-44
2023/04/09 05:19:07;;;;;;;24.90;17.70;;;10.00;99.90;;;;;;5041953;28;20029;-44
2023/04/09 05:21:33;;;;;;;23.13;17.08;;;9.90;99.90;;;;;;5042311;28;20025;-44
2023/04/09 05:23:59;;;;;;;22.38;16.10;;;9.80;99.90;;;;;;5041509;28;20025;-44
2023/04/09 05:26:24;;;;;;;20.95;15.32;;;9.80;99.90;;;;;;5042916;28;20049;-44
2023/04/09 05:28:51;;;;;;;25.02;17.88;;;9.60;99.90;;;;;;5042616;28;20188;-44
2023/04/09 05:31:16;;;;;;;23.20;16.63;;;9.60;99.90;;;;;;5041879;28;20034;-44
2023/04/09 05:33:42;;;;;;;21.50;14.63;;;9.50;99.90;;;;;;5042392;28;20033;-44
2023/04/09 05:36:07;;;;;;;20.52;16.02;;;9.40;99.90;;;;;;5042223;28;20029;-43
2023/04/09 05:38:33;;;;;;;22.38;15.05;;;9.40;99.90;;;;;;5041906;28;20047;-44
2023/04/09 05:40:59;;;;;;;21.40;15.52;;;9.30;99.90;;;;;;5042338;28;20035;-44
2023/04/09 05:43:25;;;;;;;24.10;17.73;;;9.30;99.90;;;;;;5042110;28;20056;-44
2023/04/09 05:45:50;;;;;;;25.88;17.70;;;9.30;99.90;;;;;;5041607;28;20032;-44
2023/04/09 05:48:17;;;;;;;24.17;17.58;;;9.20;99.90;;;;;;5041580;28;20094;-44
2023/04/09 05:50:49;;;;;;;23.48;16.38;;;9.20;99.90;;;;;;5042085;28;20033;-44
2023/04/09 05:53:15;;;;;;;22.92;16.08;;;9.20;99.90;;;;;;5041623;28;20071;-43
2023/04/09 05:55:40;;;;;;;25.92;18.52;;;9.10;99.90;;;;;;5042542;28;20105;-44
2023/04/09 05:58:06;;;;;;;27.52;18.50;;;9.10;99.90;;;;;;5041956;28;20048;-44
2023/04/09 06:00:32;;;;;;;24.95;17.48;;;9.10;99.90;;;;;;5040976;28;20032;-44
2023/04/09 06:02:57;;;;;;;25.27;17.27;;;9.00;99.90;;;;;;5042279;28;20650;-43
2023/04/09 06:05:23;;;;;;;25.40;16.70;;;9.00;99.90;;;;;;5041633;28;20025;-43
2023/04/09 06:07:48;;;;;;;25.33;17.73;;;9.00;99.90;;;;;;5041563;28;20431;-44
2023/04/09 06:10:14;;;;;;;21.90;15.88;;;9.00;99.90;;;;;;5041917;28;20032;-44
2023/04/09 06:12:39;;;;;;;22.90;15.80;;;9.00;99.90;;;;;;5041600;28;20038;-44
2023/04/09 06:15:05;;;;;;;24.85;17.17;;;9.00;99.90;;;;;;5041603;28;20037;-43
2023/04/09 06:17:31;;;;;;;26.90;17.75;;;9.00;99.90;;;;;;5041726;28;20049;-44
2023/04/09 06:19:56;;;;;;;25.15;17.58;;;9.00;99.90;;;;;;5040591;28;20017;-44
2023/04/09 06:22:22;;;;;;;26.75;18.63;;;9.00;99.90;;;;;;5041202;28;20598;-43
2023/04/09 06:24:47;;;;;;;24.50;16.98;;;9.00;99.90;;;;;;5040928;28;20115;-42
2023/04/09 06:27:13;;;;;;;24.40;16.90;;;9.10;99.90;;;;;;5040827;28;20478;-43
2023/04/09 06:29:38;;;;;;;27.08;17.85;;;9.10;99.90;;;;;;5041229;28;20017;-42
2023/04/09 06:32:04;;;;;;;27.52;18.70;;;9.10;99.90;;;;;;5041576;28;20120;-43
2023/04/09 06:34:30;;;;;;;31.65;20.15;;;9.10;99.90;;;;;;5041040;28;20017;-43
2023/04/09 06:36:55;;;;;;;30.08;19.73;;;9.10;99.90;;;;;;5040398;28;20021;-43
2023/04/09 06:39:21;;;;;;;27.48;18.25;;;9.10;99.90;;;;;;5040507;28;20048;-44
2023/04/09 06:41:47;;;;;;;27.75;18.75;;;9.10;99.90;;;;;;5040010;28;20103;-43
2023/04/09 06:44:15;;;;;;;26.50;16.85;;;9.10;99.90;;;;;;5041104;28;20055;-44
2023/04/09 06:46:41;;;;;;;25.10;16.92;;;9.20;99.90;;;;;;5040576;28;20127;-44
2023/04/09 06:49:06;;;;;;;24.58;16.30;;;9.20;99.90;;;;;;5039580;28;20035;-44
2023/04/09 06:51:32;;;;;;;23.23;16.45;;;9.20;99.90;;;;;;5040956;28;20060;-44
2023/04/09 06:53:57;;;;;;;24.83;16.58;;;9.20;99.90;;;;;;5041418;28;20481;-44
2023/04/09 06:56:23;;;;;;;24.85;16.30;;;9.30;99.90;;;;;;5039720;28;20064;-46
2023/04/09 06:58:48;;;;;;;23.85;16.45;;;9.30;99.90;;;;;;5041382;28;20068;-44
2023/04/09 07:01:16;;;;;;;24.85;17.05;;;9.30;99.90;;;;;;5040441;28;20025;-43
2023/04/09 07:03:41;;;;;;;25.98;17.70;;;9.40;99.90;;;;;;5040076;28;20108;-44
2023/04/09 07:06:07;;;;;;;23.63;16.35;;;9.40;99.90;;;;;;5039887;28;20122;-44
2023/04/09 07:08:32;;;;;;;24.63;17.02;;;9.40;99.90;;;;;;5040719;28;20021;-45
2023/04/09 07:10:58;;;;;;;24.15;15.95;;;9.50;99.90;;;;;;5039418;28;20108;-44
2023/04/09 07:13:23;;;;;;;24.38;15.82;;;9.50;99.90;;;;;;5040276;28;20025;-44
2023/04/09 07:15:49;;;;;;;23.30;17.10;;;9.50;99.90;;;;;;5040106;28;20029;-45
2023/04/09 07:18:14;;;;;;;24.73;17.15;;;9.50;99.90;;;;;;5039932;28;20033;-44
2023/04/09 07:20:40;;;;;;;23.60;16.33;;;9.60;99.90;;;;;;5040668;28;20063;-44
2023/04/09 07:23:05;;;;;;;25.33;17.88;;;9.60;99.90;;;;;;5040372;28;20197;-44
2023/04/09 07:25:31;;;;;;;25.90;17.50;;;9.60;99.90;;;;;;5040266;28;20087;-43
2023/04/09 07:27:57;;;;;;;23.75;16.48;;;9.60;99.90;;;;;;5040185;28;20029;-42
2023/04/09 07:30:22;;;;;;;24.58;16.98;;;9.70;99.90;;;;;;5039264;28;20029;-44
2023/04/09 07:32:48;;;;;;;25.85;17.02;;;9.70;99.90;;;;;;5039317;28;20028;-43
2023/04/09 07:35:13;;;;;;;22.52;15.77;;;9.70;99.90;;;;;;5040755;28;20029;-43
2023/04/09 07:37:39;;;;;;;21.88;15.10;;;9.80;99.90;;;;;;5038894;28;20116;-44
2023/04/09 07:40:05;;;;;;;22.00;15.75;;;9.80;99.90;;;;;;5039040;28;20432;-43
2023/04/09 07:42:31;;;;;;;24.25;16.65;;;9.90;99.90;;;;;;5040017;28;20047;-44
2023/04/09 07:44:57;;;;;;;24.50;16.90;;;9.90;99.90;;;;;;5039348;28;20720;-43
2023/04/09 07:47:23;;;;;;;23.35;15.93;;;10.00;99.90;;;;;;5039875;28;20820;-43
2023/04/09 07:49:48;;;;;;;23.48;16.85;;;10.00;99.90;;;;;;5040305;28;20036;-44
2023/04/09 07:52:14;;;;;;;23.27;16.48;;;10.00;99.90;;;;;;5039401;28;20025;-44
2023/04/09 07:54:40;;;;;;;25.13;16.90;;;10.10;99.90;;;;;;5039915;28;20044;-44
2023/04/09 07:57:06;;;;;;;24.02;16.42;;;10.10;99.90;;;;;;5039788;28;20033;-44
2023/04/09 07:59:33;;;;;;;22.23;15.48;;;10.10;99.90;;;;;;5039084;28;20025;-42
2023/04/09 08:01:58;;;;;;;22.83;15.02;;;10.20;99.90;;;;;;5039068;28;20135;-44
2023/04/09 08:04:24;;;;;;;19.70;14.52;;;10.20;99.90;;;;;;5039503;28;20031;-44
2023/04/09 08:06:50;;;;;;;24.17;16.27;;;10.30;99.90;;;;;;5038940;28;20029;-44
2023/04/09 08:09:19;;;;;;;25.27;18.42;;;10.30;99.90;;;;;;5039711;28;20131;-44
2023/04/09 08:11:46;;;;;;;25.67;16.90;;;10.30;99.90;;;;;;5041109;28;20048;-43
2023/04/09 08:14:12;;;;;;;21.60;15.50;;;10.40;99.90;;;;;;5038970;28;20786;-44
2023/04/09 08:16:48;;;;;;;21.92;15.38;;;10.40;99.90;;;;;;5039791;28;20025;-43
2023/04/09 08:19:16;;;;;;;19.92;14.70;;;10.50;99.90;;;;;;5039167;28;20029;-43
2023/04/09 08:21:42;;;;;;;20.23;14.70;;;10.50;99.90;;;;;;5020335;28;20128;-43
2023/04/09 08:24:10;;;;;;;17.98;13.75;;;10.60;99.90;;;;;;5033755;28;20817;-43
2023/04/09 08:26:39;;;;;;;20.58;13.95;;;10.70;99.90;;;;;;5038209;28;20727;-44
2023/04/09 08:29:05;;;;;;;18.98;13.50;;;10.70;99.90;;;;;;5039481;28;20025;-44
2023/04/09 08:31:31;;;;;;;21.85;16.15;;;10.80;99.90;;;;;;5043059;28;20643;-44
2023/04/09 08:33:57;;;;;;;20.38;14.00;;;10.80;99.90;;;;;;5042711;28;20017;-44
2023/04/09 08:36:22;;;;;;;20.85;14.90;;;10.90;99.90;;;;;;5043657;28;20025;-43
2023/04/09 08:38:48;;;;;;;17.77;13.52;;;10.90;99.90;;;;;;5043273;28;20037;-43
2023/04/09 08:41:27;;;;;;;18.80;14.27;;;11.00;99.90;;;;;;5042844;28;20029;-44
2023/04/09 08:43:54;;;;;;;18.25;13.60;;;11.00;99.90;;;;;;5043482;28;20021;-44
2023/04/09 08:46:20;;;;;;;18.35;13.10;;;11.00;99.90;;;;;;5043834;28;20033;-44
2023/04/09 08:48:48;;;;;;;20.73;14.27;;;11.10;99.90;;;;;;5042726;28;20060;-43
2023/04/09 08:51:15;;;;;;;17.67;13.13;;;11.10;99.90;;;;;;5042822;28;20029;-44
2023/04/09 08:53:49;;;;;;;17.63;13.07;;;11.20;99.90;;;;;;5043998;28;20067;-44
2023/04/09 08:56:15;;;;;;;19.88;14.02;;;11.30;99.90;;;;;;5043085;28;20494;-45
2023/04/09 08:58:43;;;;;;;17.33;12.98;;;11.40;99.90;;;;;;5043106;28;20041;-43
2023/04/09 09:01:23;;;;;;;16.50;12.43;;;11.40;99.90;;;;;;5041773;28;20532;-44
2023/04/09 09:04:08;;;;;;;15.57;11.43;;;11.50;99.90;;;;;;5042747;28;20029;-44
2023/04/09 09:06:36;;;;;;;17.33;12.15;;;11.50;99.90;;;;;;5040318;28;20575;-43
2023/04/09 09:09:09;;;;;;;18.90;13.57;;;11.60;99.90;;;;;;5042815;28;20033;-44
2023/04/09 09:11:40;;;;;;;17.85;12.88;;;11.60;99.90;;;;;;5042362;28;20035;-44
2023/04/09 09:14:07;;;;;;;16.80;12.02;;;11.60;99.90;;;;;;5042765;28;20028;-44
2023/04/09 09:16:43;;;;;;;17.35;13.10;;;11.70;99.90;;;;;;5040936;28;20029;-44
2023/04/09 09:19:24;;;;;;;18.35;13.65;;;11.80;99.90;;;;;;5043315;28;20112;-44
2023/04/09 09:22:02;;;;;;;18.98;13.13;;;11.80;99.90;;;;;;5042205;28;20028;-44
2023/04/09 09:24:29;;;;;;;16.15;12.07;;;11.90;99.90;;;;;;5041935;28;20029;-44
2023/04/09 09:26:56;;;;;;;15.82;11.52;;;11.90;99.90;;;;;;5041519;28;20023;-44
2023/04/09 09:29:21;;;;;;;17.38;12.80;;;11.90;99.90;;;;;;5042090;28;20587;-44
2023/04/09 09:31:49;;;;;;;16.92;12.57;;;12.00;99.90;;;;;;5040787;28;20025;-43
2023/04/09 09:34:16;;;;;;;16.20;11.77;;;12.00;99.90;;;;;;5042293;28;20552;-43
2023/04/09 09:36:42;;;;;;;14.65;11.38;;;12.00;99.90;;;;;;5041656;28;20029;-44
2023/04/09 09:39:11;;;;;;;16.13;11.80;;;12.10;99.90;;;;;;5042695;28;20025;-44
2023/04/09 09:41:38;;;;;;;17.58;12.30;;;12.10;99.90;;;;;;5041327;28;20028;-44
2023/04/09 09:44:06;;;;;;;14.60;11.13;;;12.20;99.90;;;;;;5041768;28;20029;-44
2023/04/09 09:46:37;;;;;;;16.20;11.80;;;12.20;99.90;;;;;;5041456;28;20576;-42
2023/04/09 09:49:03;;;;;;;16.88;12.30;;;12.30;99.90;;;;;;5042170;28;20037;-43
2023/04/09 09:51:31;;;;;;;17.05;12.38;;;12.30;99.90;;;;;;5040880;28;20024;-43
2023/04/09 09:53:57;;;;;;;17.85;12.85;;;12.40;99.90;;;;;;5041854;28;20485;-44
2023/04/09 09:56:31;;;;;;;16.50;12.55;;;12.50;99.90;;;;;;5041494;28;20025;-44
2023/04/09 09:59:20;;;;;;;15.98;12.18;;;12.60;99.90;;;;;;5041047;28;20101;-44
2023/04/09 10:01:55;;;;;;;15.52;12.77;;;12.60;99.90;;;;;;5041641;28;20056;-44
2023/04/09 10:04:21;;;;;;;17.30;12.98;;;12.60;99.90;;;;;;5042199;28;20397;-44
2023/04/09 10:06:48;;;;;;;16.77;11.88;;;12.60;99.90;;;;;;5041287;28;20024;-44
2023/04/09 10:09:14;;;;;;;16.10;11.20;;;12.70;99.90;;;;;;5042850;28;20123;-43
2023/04/09 10:11:42;;;;;;;17.25;12.15;;;12.70;99.90;;;;;;5041233;28;20029;-44
2023/04/09 10:14:08;;;;;;;16.25;12.40;;;12.80;99.90;;;;;;5031174;28;20028;-44
2023/04/09 10:16:34;;;;;;;15.63;12.50;;;12.80;99.90;;;;;;5041739;28;20031;-44
2023/04/09 10:19:00;;;;;;;15.25;11.68;;;12.90;99.90;;;;;;5041389;28;20158;-44
2023/04/09 10:21:53;;;;;;;17.17;13.02;;;12.90;99.90;;;;;;5041827;28;20060;-44
2023/04/09 10:24:19;;;;;;;14.77;11.68;;;13.00;99.90;;;;;;5042429;28;20063;-43
2023/04/09 10:26:45;;;;;;;13.27;10.45;;;13.00;99.90;;;;;;5041168;28;20033;-44
2023/04/09 10:29:13;;;;;;;16.90;12.90;;;13.10;99.90;;;;;;5041383;28;20028;-44
2023/04/09 10:32:03;;;;;;;16.40;12.32;;;13.10;99.90;;;;;;5041784;28;20766;-43
2023/04/09 10:34:34;;;;;;;15.02;10.98;;;13.10;99.90;;;;;;5038273;28;20025;-44
2023/04/09 10:36:59;;;;;;;14.63;11.40;;;13.20;99.90;;;;;;5042079;28;20037;-43
2023/04/09 10:39:27;;;;;;;15.27;11.55;;;13.20;99.90;;;;;;5041607;28;20024;-44
2023/04/09 10:41:53;;;;;;;13.85;10.43;;;13.20;99.90;;;;;;5040565;28;20032;-44
2023/04/09 10:44:24;;;;;;;12.70;10.20;;;13.30;99.90;;;;;;5041574;28;20143;-44
2023/04/09 10:46:52;;;;;;;14.00;11.05;;;13.40;99.90;;;;;;5040564;28;20548;-44
2023/04/09 10:49:23;;;;;;;13.13;10.02;;;13.40;99.90;;;;;;5038300;28;20025;-43
2023/04/09 10:52:12;;;;;;;12.82;9.88;;;13.50;99.90;;;;;;5041759;28;20025;-43
2023/04/09 10:54:42;;;;;;;12.10;9.32;;;13.50;99.90;;;;;;5039432;28;20029;-44
2023/04/09 10:57:12;;;;;;;14.23;10.48;;;13.60;99.90;;;;;;5041482;28;20841;-44
2023/04/09 10:59:42;;;;;;;13.50;10.85;;;13.60;99.90;;;;;;5041015;28;20340;-44
2023/04/09 11:02:12;;;;;;;14.35;10.18;;;13.60;99.90;;;;;;5040638;28;20103;-44
2023/04/09 11:05:02;;;;;;;11.85;9.30;;;13.60;99.90;;;;;;5041288;28;20641;-45
2023/04/09 11:07:29;;;;;;;11.68;9.15;;;13.70;99.90;;;;;;5021101;28;20101;-44
2023/04/09 11:09:55;;;;;;;10.65;7.90;;;13.70;99.90;;;;;;5036178;28;20020;-44
2023/04/09 11:12:20;;;;;;;9.35;7.45;;;13.70;99.90;;;;;;5040845;28;20678;-44
2023/04/09 11:14:45;;;;;;;11.07;7.55;;;13.90;99.90;;;;;;5040347;28;20035;-44
2023/04/09 11:17:12;;;;;;;7.78;6.53;;;13.90;99.90;;;;;;5039934;28;20076;-44
2023/04/09 11:19:37;;;;;;;7.88;6.20;;;14.00;99.90;;;;;;5040839;28;20106;-44
2023/04/09 11:22:05;;;;;;;7.47;6.00;;;14.00;99.90;;;;;;5040091;28;20039;-44
2023/04/09 11:24:45;;;;;;;6.43;5.57;;;14.00;99.90;;;;;;5040353;28;20413;-44
2023/04/09 11:27:11;;;;;;;6.10;5.35;;;14.10;99.90;;;;;;5040773;28;20431;-44
2023/04/09 11:29:37;;;;;;;5.72;5.00;;;14.10;99.90;;;;;;5039205;28;20021;-44
2023/04/09 11:32:06;;;;;;;7.32;5.95;;;14.10;99.90;;;;;;5040292;28;20051;-44
2023/04/09 11:34:32;;;;;;;7.88;6.65;;;14.20;99.90;;;;;;5039903;28;20132;-44
2023/04/09 11:36:58;;;;;;;8.07;6.57;;;14.20;99.90;;;;;;5039755;28;20051;-44
2023/04/09 11:39:25;;;;;;;7.15;5.93;;;14.20;99.90;;;;;;5040121;28;20033;-44
2023/04/09 11:41:51;;;;;;;7.72;6.25;;;14.20;99.90;;;;;;5040198;28;20031;-45
2023/04/09 11:44:16;;;;;;;5.53;4.90;;;14.20;99.90;;;;;;5040302;28;20025;-44
2023/04/09 11:46:42;;;;;;;6.45;5.38;;;14.30;99.90;;;;;;5040073;28;20040;-44
2023/04/09 11:49:08;;;;;;;8.32;6.55;;;14.40;99.90;;;;;;5041267;28;20088;-43
2023/04/09 11:51:34;;;;;;;7.10;5.78;;;14.40;99.90;;;;;;5039241;28;20608;-44
2023/04/09 11:54:07;;;;;;;7.78;5.75;;;14.40;99.90;;;;;;5039583;28;20088;-44
2023/04/09 11:56:35;;;;;;;;;;;14.40;99.90;;;;;;5040190;28;20025;-43
2023/04/09 11:59:01;;;;;;;5.80;4.60;;;14.40;99.90;;;;;;5039566;28;19927;-44
2023/04/09 12:01:33;;;;;;;5.30;4.28;;;14.50;99.90;;;;;;5039758;28;20502;-44
2023/04/09 12:03:59;;;;;;;;;;;14.50;99.80;;;;;;5040472;28;20063;-45
2023/04/09 12:06:27;;;;;;;5.28;4.25;;;14.50;99.60;;;;;;5042992;28;20243;-45
2023/04/09 12:08:54;;;;;;;6.07;4.38;;;14.50;99.50;;;;;;5043858;28;20057;-44
2023/04/09 12:11:30;;;;;;;5.82;4.85;;;14.50;99.30;;;;;;5043366;28;20051;-44
2023/04/09 12:14:03;;;;;;;5.70;4.90;;;14.50;99.00;;;;;;5043717;28;20814;-44
2023/04/09 12:16:35;;;;;;;7.25;5.45;;;14.50;98.80;;;;;;5043153;28;20815;-44
2023/04/09 12:19:08;;;;;;;6.90;5.30;;;14.60;98.70;;;;;;5043220;28;20034;-45
2023/04/09 12:21:50;;;;;;;6.03;5.25;;;14.60;98.50;;;;;;5044175;28;20029;-44
2023/04/09 12:24:17;;;;;;;;;;;14.70;98.60;;;;;;5044872;28;20662;-43
2023/04/09 12:26:44;;;;;;;5.78;4.80;;;14.70;98.70;;;;;;5042671;28;19922;-44
2023/04/09 12:29:12;;;;;;;8.13;5.03;;;14.70;98.70;;;;;;5043362;28;20025;-44
2023/04/09 12:31:38;;;;;;;5.38;4.63;;;14.70;98.60;;;;;;5043305;28;20079;-44
2023/04/09 12:34:03;;;;;;;7.63;5.80;;;14.70;98.60;;;;;;5042782;28;20021;-44
2023/04/09 12:36:29;;;;;;;6.43;5.72;;;14.70;98.50;;;;;;5042952;28;20071;-43